createdAt,value
2023-04-27T00:02:08.416Z,5.70
2023-04-27T00:04:37.629Z,4.80
2023-04-27T00:07:05.822Z,4.13
2023-04-27T00:09:33.777Z,7.43
2023-04-27T00:12:01.861Z,4.60
2023-04-27T00:14:29.696Z,3.17
2023-04-27T00:16:59.006Z,5.17
2023-04-27T00:19:26.827Z,3.40
2023-04-27T00:21:54.730Z,5.10
2023-04-27T00:24:22.569Z,4.10
2023-04-27T00:26:50.484Z,3.37
2023-04-27T00:29:18.411Z,3.10
2023-04-27T00:31:46.345Z,4.07
2023-04-27T00:34:15.862Z,4.20
2023-04-27T00:36:43.790Z,4.57
2023-04-27T00:39:12.356Z,4.60
2023-04-27T00:41:41.080Z,4.40
2023-04-27T00:44:09.136Z,3.70
2023-04-27T00:46:37.216Z,4.50
2023-04-27T00:49:05.538Z,4.13
2023-04-27T00:51:34.841Z,5.23
2023-04-27T00:54:02.967Z,2.80
2023-04-27T00:56:31.850Z,4.27
2023-04-27T00:58:59.819Z,3.87
2023-04-27T01:01:27.917Z,3.60
2023-04-27T01:03:56.075Z,3.80
2023-04-27T01:06:24.199Z,4.20
2023-04-27T01:08:53.449Z,5.50
2023-04-27T01:11:22.286Z,5.20
2023-04-27T01:13:50.300Z,5.60
2023-04-27T01:16:18.927Z,3.37
2023-04-27T01:18:48.081Z,4.57
2023-04-27T01:21:15.937Z,5.30
2023-04-27T01:23:45.171Z,5.60
2023-04-27T01:26:16.254Z,2.83
2023-04-27T01:28:44.314Z,2.93
2023-04-27T01:31:12.674Z,4.43
2023-04-27T01:33:41.236Z,3.17
2023-04-27T01:36:10.322Z,5.80
2023-04-27T01:38:38.292Z,4.03
2023-04-27T01:41:09.132Z,4.77
2023-04-27T01:43:37.967Z,4.77
2023-04-27T01:46:10.106Z,4.63
2023-04-27T01:48:38.912Z,4.67
2023-04-27T01:51:07.023Z,3.63
2023-04-27T01:53:35.616Z,2.90
2023-04-27T01:56:03.712Z,5.90
2023-04-27T01:58:35.491Z,4.00
2023-04-27T02:01:04.314Z,3.90
2023-04-27T02:03:32.500Z,3.00
2023-04-27T02:06:00.889Z,7.17
2023-04-27T02:08:28.885Z,4.10
2023-04-27T02:10:56.792Z,3.20
2023-04-27T02:13:24.763Z,4.73
2023-04-27T02:15:55.982Z,6.80
2023-04-27T02:18:24.362Z,4.33
2023-04-27T02:20:52.621Z,5.90
2023-04-27T02:23:20.629Z,4.17
2023-04-27T02:25:48.597Z,4.47
2023-04-27T02:28:16.612Z,5.40
2023-04-27T02:30:46.089Z,5.90
2023-04-27T02:33:15.603Z,6.83
2023-04-27T02:35:43.506Z,3.53
2023-04-27T02:38:11.483Z,4.27
2023-04-27T02:40:39.584Z,3.53
2023-04-27T02:43:08.458Z,5.50
2023-04-27T02:45:38.984Z,3.57
2023-04-27T02:48:07.803Z,4.47
2023-04-27T02:50:41.909Z,4.10
2023-04-27T02:53:09.884Z,4.00
2023-04-27T02:55:38.054Z,4.03
2023-04-27T02:58:06.222Z,4.40
2023-04-27T03:00:34.405Z,3.97
2023-04-27T03:03:02.951Z,4.27
2023-04-27T03:05:31.870Z,5.80
2023-04-27T03:08:01.430Z,3.50
2023-04-27T03:10:29.466Z,8.10
2023-04-27T03:12:57.498Z,5.00
2023-04-27T03:15:25.405Z,3.97
2023-04-27T03:17:53.576Z,3.33
2023-04-27T03:20:23.008Z,7.10
2023-04-27T03:22:50.978Z,5.40
2023-04-27T03:25:22.320Z,11.30
2023-04-27T03:27:50.849Z,3.73
2023-04-27T03:30:18.832Z,4.37
2023-04-27T03:32:47.853Z,5.83
2023-04-27T03:35:16.186Z,3.93
2023-04-27T03:37:46.607Z,4.90
2023-04-27T03:40:15.375Z,6.17
2023-04-27T03:42:44.641Z,3.67
2023-04-27T03:45:13.037Z,3.60
2023-04-27T03:47:41.304Z,5.73
2023-04-27T03:50:10.198Z,7.73
2023-04-27T03:52:38.100Z,4.30
2023-04-27T03:55:07.389Z,4.40
2023-04-27T03:57:35.573Z,5.63
2023-04-27T04:00:11.296Z,4.30
2023-04-27T04:02:40.791Z,3.90
2023-04-27T04:05:09.902Z,5.27
2023-04-27T04:07:38.056Z,7.07
2023-04-27T04:10:07.871Z,5.27
2023-04-27T04:12:35.966Z,5.43
2023-04-27T04:15:05.916Z,5.20
2023-04-27T04:17:34.947Z,4.77
2023-04-27T04:20:08.311Z,4.80
2023-04-27T04:22:36.335Z,5.80
2023-04-27T04:25:04.826Z,4.80
2023-04-27T04:27:33.549Z,6.60
2023-04-27T04:30:01.775Z,3.90
2023-04-27T04:32:31.397Z,7.03
2023-04-27T04:35:01.357Z,5.17
2023-04-27T04:37:30.342Z,4.70
2023-04-27T04:39:58.288Z,7.07
2023-04-27T04:42:27.710Z,5.23
2023-04-27T04:44:55.740Z,5.27
2023-04-27T04:47:23.674Z,4.20
2023-04-27T04:49:54.758Z,5.57
2023-04-27T04:52:22.695Z,4.50
2023-04-27T04:54:52.932Z,7.27
2023-04-27T04:57:22.429Z,7.03
2023-04-27T04:59:50.338Z,9.30
2023-04-27T05:02:18.332Z,4.30
2023-04-27T05:04:46.441Z,4.53
2023-04-27T05:07:20.890Z,6.43
2023-04-27T05:09:51.338Z,5.70
2023-04-27T05:12:19.191Z,5.67
2023-04-27T05:14:47.706Z,4.90
2023-04-27T05:17:15.565Z,6.73
2023-04-27T05:19:43.482Z,5.40
2023-04-27T05:22:11.501Z,4.63
2023-04-27T05:24:41.082Z,6.13
2023-04-27T05:27:09.052Z,5.90
2023-04-27T05:29:36.913Z,7.47
2023-04-27T05:32:05.251Z,7.43
2023-04-27T05:34:33.221Z,7.33
2023-04-27T05:37:01.302Z,7.33
2023-04-27T05:39:29.216Z,7.50
2023-04-27T05:41:58.818Z,7.27
2023-04-27T05:44:29.316Z,7.63
2023-04-27T05:46:57.327Z,7.80
2023-04-27T05:49:25.374Z,7.23
2023-04-27T05:51:53.630Z,7.63
2023-04-27T05:54:21.731Z,8.97
2023-04-27T05:56:50.365Z,9.83
2023-04-27T05:59:19.514Z,9.27
2023-04-27T06:01:47.483Z,6.50
2023-04-27T06:04:15.723Z,6.40
2023-04-27T06:06:44.999Z,7.20
2023-04-27T06:09:13.063Z,7.43
2023-04-27T06:11:41.053Z,8.80
2023-04-27T06:14:09.390Z,8.33
2023-04-27T06:16:38.636Z,7.03
2023-04-27T06:19:06.562Z,8.70
2023-04-27T06:21:35.037Z,11.50
2023-04-27T06:24:03.339Z,9.33
2023-04-27T06:26:31.212Z,7.57
2023-04-27T06:28:59.322Z,8.83
2023-04-27T06:31:27.740Z,6.40
2023-04-27T06:33:57.300Z,7.33
2023-04-27T06:36:26.729Z,9.47
2023-04-27T06:38:56.304Z,9.80
2023-04-27T06:41:24.205Z,10.37
2023-04-27T06:43:52.330Z,9.30
2023-04-27T06:46:21.483Z,7.97
2023-04-27T06:48:49.387Z,10.10
2023-04-27T06:51:18.639Z,8.20
2023-04-27T06:53:46.607Z,11.13
2023-04-27T06:56:14.474Z,11.17
2023-04-27T06:58:42.353Z,9.17
2023-04-27T07:01:10.384Z,12.03
2023-04-27T07:03:38.391Z,10.97
2023-04-27T07:06:06.913Z,7.63
2023-04-27T07:08:37.800Z,12.37
2023-04-27T07:11:06.008Z,8.50
2023-04-27T07:13:33.907Z,10.43
2023-04-27T07:16:01.907Z,12.03
2023-04-27T07:18:29.901Z,9.53
2023-04-27T07:20:58.058Z,11.17
2023-04-27T07:23:26.023Z,20.37
2023-04-27T07:25:55.460Z,15.10
2023-04-27T07:28:23.355Z,10.20
2023-04-27T07:30:51.202Z,19.17
2023-04-27T07:33:19.132Z,11.10
2023-04-27T07:35:47.068Z,12.97
2023-04-27T07:38:14.946Z,12.13
2023-04-27T07:40:44.791Z,9.87
2023-04-27T07:43:15.582Z,9.37
2023-04-27T07:45:44.015Z,9.40
2023-04-27T07:48:12.208Z,9.80
2023-04-27T07:50:40.101Z,13.73
2023-04-27T07:53:08.004Z,12.93
2023-04-27T07:55:36.062Z,10.73
2023-04-27T07:58:03.996Z,10.13
2023-04-27T08:00:33.316Z,8.83
2023-04-27T08:03:01.441Z,10.23
2023-04-27T08:05:29.989Z,10.00
2023-04-27T08:07:58.571Z,8.43
2023-04-27T08:10:26.668Z,8.87
2023-04-27T08:12:54.812Z,8.90
2023-04-27T08:15:22.691Z,12.40
2023-04-27T08:17:51.969Z,9.50
2023-04-27T08:20:20.083Z,11.00
2023-04-27T08:22:47.985Z,10.77
2023-04-27T08:25:15.905Z,8.83
2023-04-27T08:27:43.923Z,9.67
2023-04-27T08:30:12.689Z,10.47
2023-04-27T08:32:40.988Z,9.53
2023-04-27T08:35:11.512Z,9.67
2023-04-27T08:37:39.958Z,8.27
2023-04-27T08:40:09.923Z,6.70
2023-04-27T08:42:37.940Z,6.67
2023-04-27T08:45:09.208Z,15.97
2023-04-27T08:47:43.197Z,10.37
2023-04-27T08:50:13.899Z,9.27
2023-04-27T08:52:44.514Z,7.50
2023-04-27T08:55:14.433Z,7.47
2023-04-27T08:57:54.315Z,8.43
2023-04-27T09:00:22.750Z,6.67
2023-04-27T09:02:50.959Z,7.30
2023-04-27T09:05:21.428Z,9.40
2023-04-27T09:07:59.626Z,8.57
2023-04-27T09:10:29.360Z,6.57
2023-04-27T09:12:59.099Z,7.07
2023-04-27T09:15:27.579Z,8.23
2023-04-27T09:17:56.942Z,10.23
2023-04-27T09:20:28.579Z,7.83
2023-04-27T09:22:58.016Z,6.10
2023-04-27T09:25:31.401Z,7.07
2023-04-27T09:28:01.894Z,8.37
2023-04-27T09:30:30.761Z,8.50
2023-04-27T09:33:01.058Z,7.33
2023-04-27T09:35:31.498Z,6.27
2023-04-27T09:38:00.467Z,6.57
2023-04-27T09:40:31.385Z,6.83
2023-04-27T09:43:02.046Z,7.83
2023-04-27T09:45:30.463Z,8.10
2023-04-27T09:47:59.659Z,5.73
2023-04-27T09:50:27.755Z,6.70
2023-04-27T09:52:57.190Z,6.00
2023-04-27T09:55:29.387Z,10.83
2023-04-27T09:58:10.545Z,5.97
2023-04-27T10:00:49.634Z,7.90
2023-04-27T10:03:23.546Z,9.47
2023-04-27T10:06:43.508Z,7.90
2023-04-27T10:09:14.803Z,9.63
2023-04-27T10:11:45.140Z,5.10
2023-04-27T10:14:19.256Z,5.97
2023-04-27T10:16:50.829Z,6.90
2023-04-27T10:19:19.031Z,5.80
2023-04-27T10:21:57.837Z,8.57
2023-04-27T10:24:40.831Z,7.37
2023-04-27T10:27:11.329Z,7.43
2023-04-27T10:29:41.777Z,6.17
2023-04-27T10:32:11.763Z,8.03
2023-04-27T10:34:41.268Z,7.87
2023-04-27T10:37:10.946Z,7.27
2023-04-27T10:39:48.605Z,9.07
2023-04-27T10:42:29.048Z,7.07
2023-04-27T10:44:59.004Z,8.90
2023-04-27T10:47:38.609Z,6.83
2023-04-27T10:50:08.809Z,7.47
2023-04-27T10:52:36.706Z,6.73
2023-04-27T10:55:20.230Z,7.97
2023-04-27T10:57:50.046Z,6.10
2023-04-27T11:00:25.246Z,7.57
2023-04-27T11:02:54.045Z,5.60
2023-04-27T11:05:29.154Z,4.40
2023-04-27T11:08:06.660Z,7.93
2023-04-27T11:10:36.964Z,8.47
2023-04-27T11:13:10.024Z,6.83
2023-04-27T11:15:45.941Z,7.27
2023-04-27T11:18:13.937Z,5.37
2023-04-27T11:20:41.800Z,6.17
2023-04-27T11:23:11.182Z,6.80
2023-04-27T11:25:40.500Z,6.73
2023-04-27T11:28:18.354Z,5.83
2023-04-27T11:30:46.328Z,7.53
2023-04-27T11:33:14.246Z,8.47
2023-04-27T11:35:42.613Z,14.10
2023-04-27T11:38:18.643Z,6.60
2023-04-27T11:40:48.470Z,8.07
2023-04-27T11:43:16.349Z,9.23
2023-04-27T11:45:44.940Z,6.40
2023-04-27T11:48:16.589Z,6.70
2023-04-27T11:50:48.387Z,8.57
2023-04-27T11:53:18.722Z,6.80
2023-04-27T11:55:53.513Z,6.30
2023-04-27T11:58:22.512Z,6.13
2023-04-27T12:00:50.842Z,6.10
2023-04-27T12:03:18.794Z,6.43
2023-04-27T12:05:51.207Z,6.53
2023-04-27T12:08:19.292Z,5.60
2023-04-27T12:10:48.691Z,5.80
2023-04-27T12:13:16.627Z,6.30
2023-04-27T12:15:44.755Z,5.67
2023-04-27T12:18:12.755Z,8.07
2023-04-27T12:20:41.492Z,6.43
2023-04-27T12:23:09.386Z,8.23
2023-04-27T12:25:37.543Z,8.33
2023-04-27T12:28:07.049Z,6.67
2023-04-27T12:30:36.286Z,8.03
2023-04-27T12:33:09.716Z,5.27
2023-04-27T12:35:39.064Z,6.50
2023-04-27T12:38:07.036Z,8.80
2023-04-27T12:40:35.080Z,7.70
2023-04-27T12:43:02.949Z,7.77
2023-04-27T12:45:32.202Z,7.27
2023-04-27T12:48:03.916Z,6.82
2023-04-27T12:50:33.160Z,8.05
2023-04-27T12:53:01.251Z,7.53
2023-04-27T12:55:33.070Z,8.50
2023-04-27T12:58:04.703Z,6.47
2023-04-27T13:00:34.438Z,8.47
2023-04-27T13:03:02.477Z,9.17
2023-04-27T13:05:32.014Z,8.50
2023-04-27T13:08:00.330Z,6.03
2023-04-27T13:10:29.170Z,5.50
2023-04-27T13:12:57.849Z,8.73
2023-04-27T13:15:25.790Z,5.73
2023-04-27T13:17:56.278Z,6.13
2023-04-27T13:20:24.233Z,7.27
2023-04-27T13:22:52.133Z,6.13
2023-04-27T13:25:20.728Z,6.70
2023-04-27T13:27:48.652Z,7.57
2023-04-27T13:30:16.751Z,8.53
2023-04-27T13:32:44.637Z,7.03
2023-04-27T13:35:14.266Z,6.60
2023-04-27T13:37:42.699Z,6.97
2023-04-27T13:40:12.522Z,5.50
2023-04-27T13:42:41.112Z,6.43
2023-04-27T13:45:09.898Z,4.93
2023-04-27T13:47:37.887Z,5.05
2023-04-27T13:50:07.825Z,7.28
2023-04-27T13:52:38.006Z,5.05
2023-04-27T13:55:07.123Z,5.18
2023-04-27T13:57:35.184Z,8.53
2023-04-27T14:00:03.577Z,6.60
2023-04-27T14:02:35.318Z,6.82
2023-04-27T14:05:03.369Z,6.82
2023-04-27T14:07:31.759Z,7.03
2023-04-27T14:10:01.205Z,9.93
2023-04-27T14:12:29.090Z,8.88
2023-04-27T14:14:58.434Z,8.10
2023-04-27T14:17:26.756Z,5.27
2023-04-27T14:19:54.716Z,5.67
2023-04-27T14:22:22.659Z,8.87
2023-04-27T14:24:50.603Z,6.97
2023-04-27T14:27:19.875Z,8.77
2023-04-27T14:29:47.866Z,6.63
2023-04-27T14:32:16.047Z,8.30
2023-04-27T14:34:44.022Z,6.03
2023-04-27T14:37:11.975Z,8.07
2023-04-27T14:39:39.947Z,6.03
2023-04-27T14:42:07.809Z,5.37
2023-04-27T14:44:37.170Z,6.90
2023-04-27T14:47:06.295Z,7.20
2023-04-27T14:49:34.236Z,7.57
2023-04-27T14:52:04.565Z,9.63
2023-04-27T14:54:32.494Z,6.87
2023-04-27T14:57:01.061Z,5.50
2023-04-27T14:59:29.024Z,6.30
2023-04-27T15:01:58.348Z,7.73
2023-04-27T15:04:26.802Z,5.97
2023-04-27T15:06:54.945Z,6.77
2023-04-27T15:09:22.837Z,11.13
2023-04-27T15:11:50.757Z,9.77
2023-04-27T15:14:18.686Z,11.50
2023-04-27T15:16:46.575Z,7.17
2023-04-27T15:19:16.485Z,7.97
2023-04-27T15:21:44.749Z,5.90
2023-04-27T15:24:12.632Z,5.73
2023-04-27T15:26:41.130Z,6.93
2023-04-27T15:29:09.002Z,5.33
2023-04-27T15:31:37.039Z,6.60
2023-04-27T15:34:05.042Z,9.37
2023-04-27T15:36:34.475Z,10.87
2023-04-27T15:39:02.342Z,8.17
2023-04-27T15:41:30.198Z,8.13
2023-04-27T15:43:58.160Z,6.33
2023-04-27T15:46:26.104Z,8.33
2023-04-27T15:48:54.034Z,5.03
2023-04-27T15:51:21.890Z,7.63
2023-04-27T15:53:51.117Z,5.53
2023-04-27T15:56:19.100Z,5.17
2023-04-27T15:58:47.078Z,6.50
2023-04-27T16:01:15.008Z,5.40
2023-04-27T16:03:43.104Z,6.17
2023-04-27T16:06:11.410Z,6.33
2023-04-27T16:08:39.318Z,9.63
2023-04-27T16:11:08.654Z,8.00
2023-04-27T16:13:36.570Z,7.03
2023-04-27T16:16:04.823Z,5.50
2023-04-27T16:18:32.714Z,6.13
2023-04-27T16:21:00.574Z,6.20
2023-04-27T16:23:28.485Z,6.10
2023-04-27T16:25:56.439Z,8.20
2023-04-27T16:28:25.734Z,7.07
2023-04-27T16:30:53.809Z,5.55
2023-04-27T16:33:21.800Z,4.00
2023-04-27T16:35:49.940Z,6.70
2023-04-27T16:38:18.047Z,5.97
2023-04-27T16:40:46.032Z,8.55
2023-04-27T16:43:13.868Z,5.53
2023-04-27T16:45:43.336Z,6.57
2023-04-27T16:48:11.990Z,6.25
2023-04-27T16:50:40.792Z,6.40
2023-04-27T16:53:10.862Z,7.70
2023-04-27T16:55:38.772Z,6.97
2023-04-27T16:58:07.555Z,5.97
2023-04-27T17:00:35.603Z,5.43
2023-04-27T17:03:05.113Z,6.72
2023-04-27T17:05:33.766Z,6.93
2023-04-27T17:08:04.915Z,9.45
2023-04-27T17:10:33.449Z,7.38
2023-04-27T17:13:01.434Z,6.97
2023-04-27T17:15:29.474Z,3.92
2023-04-27T17:17:59.549Z,5.63
2023-04-27T17:20:29.483Z,8.55
2023-04-27T17:22:57.995Z,5.57
2023-04-27T17:25:26.098Z,5.78
2023-04-27T17:27:54.093Z,6.60
2023-04-27T17:30:21.973Z,3.97
2023-04-27T17:32:50.201Z,5.43
2023-04-27T17:35:20.452Z,8.07
2023-04-27T17:37:49.867Z,5.57
2023-04-27T17:40:20.681Z,7.30
2023-04-27T17:42:48.923Z,6.97
2023-04-27T17:45:17.118Z,7.30
2023-04-27T17:47:45.030Z,7.20
2023-04-27T17:50:14.650Z,8.73
2023-04-27T17:52:42.554Z,8.23
2023-04-27T17:55:12.273Z,9.10
2023-04-27T17:57:40.768Z,9.93
2023-04-27T18:00:10.250Z,7.73
2023-04-27T18:02:39.471Z,7.43
2023-04-27T18:05:08.183Z,10.13
2023-04-27T18:07:37.237Z,9.03
2023-04-27T18:10:05.566Z,11.57
2023-04-27T18:12:34.984Z,8.20
2023-04-27T18:15:05.510Z,8.67
2023-04-27T18:17:34.939Z,6.30
2023-04-27T18:20:09.355Z,5.70
2023-04-27T18:22:39.811Z,8.47
2023-04-27T18:25:08.787Z,6.97
2023-04-27T18:27:38.279Z,9.20
2023-04-27T18:30:07.723Z,9.67
2023-04-27T18:32:36.049Z,6.67
2023-04-27T18:35:05.581Z,6.50
2023-04-27T18:37:33.507Z,5.63
2023-04-27T18:40:01.457Z,4.33
2023-04-27T18:42:29.379Z,4.17
2023-04-27T18:45:00.782Z,6.53
2023-04-27T18:47:29.116Z,5.97
2023-04-27T18:49:57.037Z,3.77
2023-04-27T18:52:24.920Z,6.60
2023-04-27T18:54:52.805Z,6.43
2023-04-27T18:57:21.013Z,4.27
2023-04-27T18:59:49.029Z,3.93
2023-04-27T19:02:18.233Z,5.30
2023-04-27T19:04:53.160Z,6.23
2023-04-27T19:07:29.954Z,4.77
2023-04-27T19:09:57.987Z,10.40
2023-04-27T19:12:26.029Z,4.80
2023-04-27T19:14:54.107Z,5.90
2023-04-27T19:17:23.485Z,4.43
2023-04-27T19:19:51.355Z,4.33
2023-04-27T19:22:19.332Z,4.00
2023-04-27T19:24:47.703Z,4.27
2023-04-27T19:27:15.820Z,5.00
2023-04-27T19:29:51.763Z,4.03
2023-04-27T19:32:20.283Z,3.67
2023-04-27T19:34:50.007Z,4.07
2023-04-27T19:37:18.199Z,6.93
2023-04-27T19:39:46.946Z,4.10
2023-04-27T19:42:15.206Z,4.87
2023-04-27T19:44:43.227Z,7.57
2023-04-27T19:47:11.786Z,6.20
2023-04-27T19:49:40.250Z,6.37
2023-04-27T19:52:09.614Z,6.33
2023-04-27T19:54:38.313Z,5.03
2023-04-27T19:57:06.586Z,5.90
2023-04-27T19:59:34.757Z,6.50
2023-04-27T20:02:03.099Z,6.70
2023-04-27T20:04:31.276Z,4.87
2023-04-27T20:06:59.390Z,4.13
2023-04-27T20:09:28.631Z,4.10
2023-04-27T20:11:56.634Z,7.03
2023-04-27T20:14:24.903Z,4.90
2023-04-27T20:16:53.002Z,5.53
2023-04-27T20:19:22.567Z,6.43
2023-04-27T20:21:50.483Z,4.50
2023-04-27T20:24:18.550Z,6.07
2023-04-27T20:26:47.812Z,3.63
2023-04-27T20:29:16.039Z,6.70
2023-04-27T20:31:44.894Z,3.93
2023-04-27T20:34:13.680Z,5.00
2023-04-27T20:36:44.264Z,3.63
2023-04-27T20:39:13.008Z,6.73
2023-04-27T20:41:41.897Z,4.37
2023-04-27T20:44:11.735Z,4.80
2023-04-27T20:46:39.732Z,4.13
2023-04-27T20:49:07.680Z,4.37
2023-04-27T20:51:35.810Z,4.70
2023-04-27T20:54:03.757Z,4.53
2023-04-27T20:56:32.860Z,5.90
2023-04-27T20:59:01.050Z,6.83
2023-04-27T21:01:30.335Z,7.27
2023-04-27T21:03:58.487Z,5.47
2023-04-27T21:06:26.668Z,6.13
2023-04-27T21:08:54.515Z,6.30
2023-04-27T21:11:22.528Z,5.80
2023-04-27T21:13:50.485Z,4.13
2023-04-27T21:16:18.757Z,6.57
2023-04-27T21:18:47.992Z,7.33
2023-04-27T21:21:15.871Z,7.03
2023-04-27T21:23:43.819Z,5.77
2023-04-27T21:26:12.089Z,4.97
2023-04-27T21:28:40.494Z,5.13
2023-04-27T21:31:08.481Z,5.83
2023-04-27T21:33:36.422Z,7.00
2023-04-27T21:36:06.333Z,6.03
2023-04-27T21:38:34.290Z,5.47
2023-04-27T21:41:02.113Z,4.43
2023-04-27T21:43:30.119Z,5.67
2023-04-27T21:45:58.416Z,6.30
2023-04-27T21:48:26.334Z,6.13
2023-04-27T21:50:54.199Z,5.93
2023-04-27T21:53:23.432Z,6.00
2023-04-27T21:55:51.656Z,4.37
2023-04-27T21:58:19.485Z,5.13
2023-04-27T22:00:48.647Z,5.70
2023-04-27T22:03:16.769Z,5.53
2023-04-27T22:05:45.239Z,6.63
2023-04-27T22:08:13.300Z,7.87
2023-04-27T22:10:42.546Z,5.43
2023-04-27T22:13:18.875Z,6.10
2023-04-27T22:15:48.119Z,7.17
2023-04-27T22:18:16.117Z,6.63
2023-04-27T22:20:44.386Z,6.00
2023-04-27T22:23:12.296Z,5.30
2023-04-27T22:25:42.604Z,5.13
2023-04-27T22:28:12.203Z,6.53
2023-04-27T22:30:41.498Z,7.53
2023-04-27T22:33:10.213Z,3.70
2023-04-27T22:35:38.507Z,7.20
2023-04-27T22:38:07.029Z,5.83
2023-04-27T22:40:34.926Z,8.07
2023-04-27T22:43:03.440Z,9.70
2023-04-27T22:45:33.447Z,8.13
2023-04-27T22:48:02.079Z,5.33
2023-04-27T22:50:30.811Z,8.93
2023-04-27T22:53:00.450Z,4.33
2023-04-27T22:55:28.808Z,6.20
2023-04-27T22:57:56.791Z,5.73
2023-04-27T23:00:25.403Z,5.87
2023-04-27T23:02:55.207Z,5.67
2023-04-27T23:05:23.263Z,7.47
2023-04-27T23:07:51.810Z,4.20
2023-04-27T23:10:19.723Z,6.87
2023-04-27T23:12:47.783Z,3.87
2023-04-27T23:15:16.414Z,7.07
2023-04-27T23:17:44.513Z,7.03
2023-04-27T23:20:27.351Z,5.50
2023-04-27T23:22:56.965Z,6.50
2023-04-27T23:25:25.051Z,6.83
2023-04-27T23:27:53.139Z,4.40
2023-04-27T23:30:21.781Z,6.07
2023-04-27T23:32:50.026Z,6.00
2023-04-27T23:35:19.652Z,5.10
2023-04-27T23:37:47.564Z,7.13
2023-04-27T23:40:15.616Z,5.77
2023-04-27T23:42:43.559Z,5.67
2023-04-27T23:45:12.229Z,4.63
2023-04-27T23:47:40.192Z,6.30
2023-04-27T23:50:08.984Z,6.47
2023-04-27T23:52:38.260Z,5.73
2023-04-27T23:55:07.177Z,3.83
2023-04-27T23:57:35.085Z,6.73
